createdAt,value
2022-12-09T00:01:39.292Z,16.42
2022-12-09T00:04:08.515Z,19.80
2022-12-09T00:06:37.850Z,23.02
2022-12-09T00:09:07.085Z,23.45
2022-12-09T00:11:37.591Z,23.20
2022-12-09T00:14:06.951Z,27.83
2022-12-09T00:16:36.090Z,20.10
2022-12-09T00:19:05.369Z,28.13
2022-12-09T00:21:35.419Z,26.40
2022-12-09T00:24:05.635Z,22.70
2022-12-09T00:26:36.780Z,25.25
2022-12-09T00:29:08.154Z,23.40
2022-12-09T00:31:38.874Z,21.83
2022-12-09T00:34:09.536Z,24.33
2022-12-09T00:36:40.649Z,17.20
2022-12-09T00:39:10.232Z,20.00
2022-12-09T00:41:39.446Z,19.45
2022-12-09T00:44:10.032Z,19.58
2022-12-09T00:49:09.196Z,18.92
2022-12-09T00:51:38.631Z,19.63
2022-12-09T00:54:07.875Z,20.55
2022-12-09T00:56:37.721Z,31.02
2022-12-09T00:59:07.549Z,17.92
2022-12-09T01:01:38.231Z,15.68
2022-12-09T01:04:09.702Z,21.00
2022-12-09T01:06:39.036Z,19.80
2022-12-09T01:09:08.554Z,19.23
2022-12-09T01:11:38.135Z,21.60
2022-12-09T01:14:09.007Z,19.10
2022-12-09T01:16:39.724Z,15.10
2022-12-09T01:19:09.984Z,18.55
2022-12-09T01:21:39.340Z,19.52
2022-12-09T01:24:10.248Z,17.17
2022-12-09T01:26:40.847Z,16.75
2022-12-09T01:29:10.363Z,18.35
2022-12-09T01:31:41.596Z,18.73
2022-12-09T01:34:11.287Z,17.00
2022-12-09T01:36:40.827Z,22.05
2022-12-09T01:39:09.841Z,13.60
2022-12-09T01:41:38.982Z,17.95
2022-12-09T01:44:12.399Z,22.45
2022-12-09T01:46:43.137Z,14.13
2022-12-09T01:49:14.379Z,16.92
2022-12-09T01:51:45.164Z,14.65
2022-12-09T01:54:16.913Z,23.55
2022-12-09T01:56:47.125Z,13.93
2022-12-09T01:59:17.143Z,17.25
2022-12-09T02:01:50.019Z,13.05
2022-12-09T02:04:19.842Z,18.88
2022-12-09T02:06:49.137Z,18.05
2022-12-09T02:09:22.191Z,16.30
2022-12-09T02:12:01.561Z,15.20
2022-12-09T02:14:33.563Z,22.27
2022-12-09T02:17:15.527Z,22.52
2022-12-09T02:19:51.143Z,20.92
2022-12-09T02:22:23.563Z,30.10
2022-12-09T02:24:57.922Z,28.77
2022-12-09T02:27:30.588Z,20.85
2022-12-09T02:30:08.886Z,16.95
2022-12-09T02:32:49.118Z,20.17
2022-12-09T02:35:22.577Z,20.58
2022-12-09T02:37:56.541Z,13.63
2022-12-09T02:40:28.699Z,17.38
2022-12-09T02:42:58.579Z,16.08
2022-12-09T02:45:30.628Z,17.40
2022-12-09T02:48:03.875Z,21.80
2022-12-09T02:50:36.825Z,18.63
2022-12-09T02:53:08.646Z,19.55
2022-12-09T02:58:07.364Z,20.33
2022-12-09T03:00:39.449Z,15.93
2022-12-09T03:03:09.939Z,18.65
2022-12-09T03:05:45.642Z,17.58
2022-12-09T03:08:17.897Z,16.80
2022-12-09T03:10:54.223Z,16.27
2022-12-09T03:13:27.335Z,17.33
2022-12-09T03:15:59.627Z,16.55
2022-12-09T03:18:31.317Z,16.17
2022-12-09T03:21:03.216Z,17.63
2022-12-09T03:23:33.827Z,11.73
2022-12-09T03:26:06.688Z,14.50
2022-12-09T03:28:38.306Z,14.57
2022-12-09T03:31:09.737Z,22.38
2022-12-09T03:36:11.376Z,14.35
2022-12-09T03:38:41.656Z,21.20
2022-12-09T03:41:16.020Z,16.50
2022-12-09T03:43:49.358Z,14.25
2022-12-09T03:46:19.438Z,15.93
2022-12-09T03:48:49.330Z,16.25
2022-12-09T03:51:22.787Z,14.38
2022-12-09T03:53:54.022Z,15.35
2022-12-09T03:56:25.211Z,16.10
2022-12-09T03:58:55.529Z,14.82
2022-12-09T04:01:26.029Z,14.70
2022-12-09T04:03:57.285Z,18.50
2022-12-09T04:06:28.431Z,16.02
2022-12-09T04:09:02.130Z,20.40
2022-12-09T04:11:31.684Z,16.63
2022-12-09T04:14:01.072Z,18.15
2022-12-09T04:16:31.117Z,18.00
2022-12-09T04:19:00.586Z,18.25
2022-12-09T04:21:33.017Z,19.58
2022-12-09T04:24:02.543Z,15.45
2022-12-09T04:26:31.817Z,16.15
2022-12-09T04:29:01.293Z,17.50
2022-12-09T04:31:30.792Z,16.20
2022-12-09T04:34:05.183Z,21.17
2022-12-09T04:36:39.815Z,17.73
2022-12-09T04:39:09.209Z,16.52
2022-12-09T04:41:38.398Z,19.58
2022-12-09T04:44:08.397Z,15.40
2022-12-09T04:46:37.661Z,17.95
2022-12-09T04:49:06.928Z,17.65
2022-12-09T04:51:39.843Z,18.92
2022-12-09T04:54:13.204Z,19.17
2022-12-09T04:56:42.674Z,16.73
2022-12-09T04:59:11.894Z,22.58
2022-12-09T05:01:42.979Z,14.77
2022-12-09T05:04:12.555Z,15.52
2022-12-09T05:06:42.439Z,16.60
2022-12-09T05:09:15.978Z,18.15
2022-12-09T05:11:45.328Z,20.45
2022-12-09T05:14:14.817Z,17.92
2022-12-09T05:16:44.090Z,20.02
2022-12-09T05:19:13.665Z,17.70
2022-12-09T05:21:44.224Z,16.98
2022-12-09T05:24:14.913Z,17.02
2022-12-09T05:26:44.085Z,14.02
2022-12-09T05:29:17.904Z,15.93
2022-12-09T05:31:51.682Z,17.20
2022-12-09T05:34:21.286Z,15.57
2022-12-09T05:36:51.911Z,16.33
2022-12-09T05:39:22.781Z,25.30
2022-12-09T05:41:52.263Z,16.17
2022-12-09T05:44:21.506Z,20.13
2022-12-09T05:46:50.611Z,20.60
2022-12-09T05:49:20.343Z,19.52
2022-12-09T05:51:49.773Z,21.35
2022-12-09T05:54:18.904Z,24.40
2022-12-09T05:56:49.805Z,18.65
2022-12-09T05:59:19.510Z,20.33
2022-12-09T06:01:48.817Z,20.20
2022-12-09T06:04:18.277Z,18.48
2022-12-09T06:06:48.084Z,17.52
2022-12-09T06:09:17.468Z,21.80
2022-12-09T06:11:47.273Z,19.00
2022-12-09T06:14:18.031Z,17.90
2022-12-09T06:16:47.434Z,15.90
2022-12-09T06:19:16.870Z,22.25
2022-12-09T06:21:46.684Z,22.67
2022-12-09T06:24:16.155Z,18.77
2022-12-09T06:26:45.545Z,17.75
2022-12-09T06:29:15.315Z,17.52
2022-12-09T06:31:46.284Z,19.95
2022-12-09T06:34:15.899Z,18.25
2022-12-09T06:36:45.256Z,18.88
2022-12-09T06:39:14.817Z,18.33
2022-12-09T06:41:44.563Z,21.95
2022-12-09T06:44:21.511Z,20.33
2022-12-09T06:46:55.249Z,24.58
2022-12-09T06:49:34.523Z,18.17
2022-12-09T06:52:09.141Z,15.77
2022-12-09T06:54:38.914Z,18.27
2022-12-09T06:57:08.493Z,21.60
2022-12-09T06:59:38.137Z,18.33
2022-12-09T07:02:09.972Z,17.92
2022-12-09T07:04:39.964Z,20.30
2022-12-09T07:07:25.941Z,19.93
2022-12-09T07:09:55.929Z,19.00
2022-12-09T07:12:37.181Z,16.88
2022-12-09T07:15:15.226Z,27.08
2022-12-09T07:17:52.889Z,20.42
2022-12-09T07:20:50.631Z,18.50
2022-12-09T07:23:20.251Z,22.48
2022-12-09T07:25:57.133Z,20.42
2022-12-09T07:28:26.957Z,18.27
2022-12-09T07:30:56.281Z,20.00
2022-12-09T07:33:27.108Z,21.15
2022-12-09T07:35:57.593Z,18.10
2022-12-09T07:38:27.839Z,20.60
2022-12-09T07:40:57.258Z,20.80
2022-12-09T07:43:31.745Z,23.05
2022-12-09T07:46:01.363Z,22.65
2022-12-09T07:48:36.938Z,23.67
2022-12-09T07:51:08.022Z,19.88
2022-12-09T07:53:37.941Z,24.40
2022-12-09T07:56:08.624Z,24.70
2022-12-09T07:58:38.370Z,20.42
2022-12-09T08:01:08.897Z,20.92
2022-12-09T08:03:42.638Z,25.20
2022-12-09T08:06:13.965Z,23.50
2022-12-09T08:08:44.279Z,21.45
2022-12-09T08:11:21.567Z,19.88
2022-12-09T08:13:58.918Z,21.92
2022-12-09T08:16:28.628Z,25.25
2022-12-09T08:19:04.756Z,22.83
2022-12-09T08:21:35.159Z,18.60
2022-12-09T08:24:07.824Z,25.98
2022-12-09T08:26:39.968Z,24.15
2022-12-09T08:29:11.006Z,24.30
2022-12-09T08:31:43.700Z,27.92
2022-12-09T08:34:16.146Z,25.63
2022-12-09T08:36:46.445Z,28.02
2022-12-09T08:39:16.419Z,27.10
2022-12-09T08:41:45.654Z,25.40
2022-12-09T08:44:16.247Z,28.90
2022-12-09T08:46:47.316Z,29.58
2022-12-09T08:49:28.282Z,35.47
2022-12-09T08:52:01.186Z,32.95
2022-12-09T08:54:35.799Z,27.45
2022-12-09T08:57:05.848Z,27.25
2022-12-09T08:59:41.887Z,27.65
2022-12-09T09:02:16.543Z,28.92
2022-12-09T09:04:47.781Z,34.13
2022-12-09T09:09:47.127Z,33.38
2022-12-09T09:12:16.791Z,31.08
2022-12-09T09:14:46.368Z,30.50
2022-12-09T09:17:18.977Z,31.33
2022-12-09T09:19:58.897Z,32.63
2022-12-09T09:22:32.680Z,37.28
2022-12-09T09:25:03.321Z,40.88
2022-12-09T09:27:33.541Z,35.47
2022-12-09T09:30:04.201Z,35.38
2022-12-09T09:32:34.601Z,29.02
2022-12-09T09:35:05.561Z,32.45
2022-12-09T09:37:34.985Z,39.55
2022-12-09T09:40:04.409Z,31.58
2022-12-09T09:42:37.950Z,35.40
2022-12-09T09:45:09.326Z,31.83
2022-12-09T09:47:40.854Z,32.85
2022-12-09T09:50:21.351Z,35.38
2022-12-09T09:52:53.902Z,34.13
2022-12-09T09:55:28.564Z,37.47
2022-12-09T09:58:00.281Z,41.60
2022-12-09T10:00:31.688Z,38.42
2022-12-09T10:03:02.510Z,48.65
2022-12-09T10:05:34.459Z,42.83
2022-12-09T10:10:41.098Z,34.83
2022-12-09T10:13:20.701Z,40.47
2022-12-09T10:15:58.676Z,40.03
2022-12-09T10:18:31.227Z,41.20
2022-12-09T10:21:19.443Z,34.35
2022-12-09T10:23:54.680Z,36.38
2022-12-09T10:26:26.471Z,39.08
2022-12-09T10:31:25.291Z,34.78
2022-12-09T10:33:55.362Z,34.03
2022-12-09T10:36:36.040Z,40.72
2022-12-09T10:39:06.250Z,41.75
2022-12-09T10:41:59.805Z,39.78
2022-12-09T10:44:29.724Z,38.30
2022-12-09T10:46:59.905Z,34.72
2022-12-09T10:49:29.769Z,42.63
2022-12-09T10:52:00.869Z,33.20
2022-12-09T10:54:47.685Z,38.35
2022-12-09T10:57:29.021Z,31.33
2022-12-09T11:00:01.778Z,33.53
2022-12-09T11:02:37.518Z,35.88
2022-12-09T11:05:25.506Z,28.80
2022-12-09T11:07:59.887Z,30.55
2022-12-09T11:10:38.324Z,26.90
2022-12-09T11:13:10.424Z,31.98
2022-12-09T11:15:47.955Z,28.33
2022-12-09T11:18:22.154Z,26.15
2022-12-09T11:21:27.562Z,30.58
2022-12-09T11:24:59.007Z,27.88
2022-12-09T11:27:30.429Z,30.55
2022-12-09T11:30:15.845Z,27.30
2022-12-09T11:32:55.552Z,31.17
2022-12-09T11:35:39.132Z,41.83
2022-12-09T11:38:21.453Z,36.20
2022-12-09T11:41:02.036Z,40.97
2022-12-09T11:43:33.203Z,44.08
2022-12-09T11:46:09.590Z,31.83
2022-12-09T11:48:43.638Z,35.80
2022-12-09T11:51:20.264Z,38.00
2022-12-09T11:54:03.684Z,32.08
2022-12-09T11:56:37.753Z,36.00
2022-12-09T11:59:12.331Z,33.97
2022-12-09T12:01:49.299Z,38.45
2022-12-09T12:04:21.161Z,39.53
2022-12-09T12:06:53.093Z,36.22
2022-12-09T12:09:29.853Z,31.27
2022-12-09T12:12:06.356Z,30.63
2022-12-09T12:14:37.926Z,38.17
2022-12-09T12:17:11.775Z,40.95
2022-12-09T12:19:43.091Z,34.30
2022-12-09T12:22:25.095Z,37.03
2022-12-09T12:25:18.454Z,39.63
2022-12-09T12:28:00.419Z,36.08
2022-12-09T12:30:35.648Z,44.88
2022-12-09T12:33:53.437Z,39.35
2022-12-09T12:36:12.556Z,37.58
2022-12-09T12:38:51.502Z,39.42
2022-12-09T12:44:52.112Z,38.20
2022-12-09T12:47:38.264Z,31.80
2022-12-09T12:50:33.455Z,40.85
2022-12-09T12:53:15.006Z,33.53
2022-12-09T12:55:49.060Z,32.22
2022-12-09T12:58:22.337Z,38.20
2022-12-09T13:00:56.495Z,33.35
2022-12-09T13:03:29.473Z,33.70
2022-12-09T13:06:00.028Z,35.55
2022-12-09T13:08:35.147Z,34.80
2022-12-09T13:11:09.034Z,33.10
2022-12-09T13:13:41.940Z,30.48
2022-12-09T13:16:15.734Z,36.63
2022-12-09T13:18:46.746Z,39.58
2022-12-09T13:21:16.408Z,31.87
2022-12-09T13:23:58.328Z,28.40
2022-12-09T13:26:33.082Z,30.55
2022-12-09T13:29:07.081Z,30.65
2022-12-09T13:31:37.318Z,35.22
2022-12-09T13:34:20.487Z,31.25
2022-12-09T13:36:52.034Z,29.40
2022-12-09T13:39:36.540Z,27.65
2022-12-09T13:42:24.098Z,26.98
2022-12-09T13:45:24.372Z,30.25
2022-12-09T13:47:54.639Z,22.08
2022-12-09T13:50:29.938Z,25.13
2022-12-09T13:53:01.219Z,23.63
2022-12-09T13:55:33.183Z,28.13
2022-12-09T14:00:33.209Z,25.50
2022-12-09T14:03:05.404Z,24.70
2022-12-09T14:05:38.102Z,28.92
2022-12-09T14:08:18.178Z,29.90
2022-12-09T14:10:50.290Z,26.55
2022-12-09T14:13:31.353Z,42.58
2022-12-09T14:16:11.824Z,27.70
2022-12-09T14:18:41.105Z,28.38
2022-12-09T14:21:30.852Z,28.67
2022-12-09T14:24:19.134Z,29.25
2022-12-09T14:26:49.118Z,29.90
2022-12-09T14:29:33.370Z,26.67
2022-12-09T14:32:04.927Z,27.67
2022-12-09T14:34:36.448Z,34.83
2022-12-09T14:37:23.861Z,33.88
2022-12-09T14:39:57.899Z,29.40
2022-12-09T14:42:31.531Z,22.90
2022-12-09T14:45:06.081Z,27.25
2022-12-09T14:47:40.608Z,21.50
2022-12-09T14:50:11.437Z,22.35
2022-12-09T14:52:50.866Z,27.83
2022-12-09T14:55:23.560Z,21.73
2022-12-09T14:57:53.375Z,19.30
2022-12-09T15:00:34.249Z,28.40
2022-12-09T15:05:58.423Z,25.83
2022-12-09T15:08:34.881Z,26.10
2022-12-09T15:11:07.566Z,24.88
2022-12-09T15:13:37.750Z,26.42
2022-12-09T15:16:10.116Z,23.70
2022-12-09T15:18:39.896Z,26.48
2022-12-09T15:21:09.365Z,33.97
2022-12-09T15:23:40.039Z,35.50
2022-12-09T15:26:18.971Z,31.48
2022-12-09T15:28:49.404Z,27.02
2022-12-09T15:31:20.270Z,27.83
2022-12-09T15:33:52.697Z,30.70
2022-12-09T15:36:26.197Z,31.50
2022-12-09T15:38:56.715Z,28.20
2022-12-09T15:41:46.680Z,31.05
2022-12-09T15:44:18.525Z,26.95
2022-12-09T15:46:49.349Z,32.55
2022-12-09T15:49:21.276Z,36.17
2022-12-09T15:51:51.767Z,41.38
2022-12-09T15:54:22.357Z,39.25
2022-12-09T15:56:56.157Z,35.25
2022-12-09T15:59:27.095Z,38.72
2022-12-09T16:01:57.896Z,36.00
2022-12-09T16:04:28.233Z,27.80
2022-12-09T16:06:57.616Z,40.63
2022-12-09T16:09:26.822Z,32.17
2022-12-09T16:11:57.234Z,33.83
2022-12-09T16:14:26.492Z,36.50
2022-12-09T16:16:57.382Z,34.80
2022-12-09T16:19:33.661Z,30.73
2022-12-09T16:22:04.514Z,34.85
2022-12-09T16:24:51.075Z,32.15
2022-12-09T16:27:29.532Z,34.00
2022-12-09T16:29:59.899Z,26.98
2022-12-09T16:32:31.739Z,38.70
2022-12-09T16:35:01.587Z,36.30
2022-12-09T16:37:37.616Z,32.83
2022-12-09T16:40:32.838Z,37.50
2022-12-09T16:43:16.761Z,35.47
2022-12-09T16:45:50.222Z,41.42
2022-12-09T16:48:20.423Z,39.53
2022-12-09T16:50:51.038Z,35.80
2022-12-09T16:53:22.026Z,33.92
2022-12-09T16:55:55.055Z,40.23
2022-12-09T16:58:26.722Z,50.70
2022-12-09T17:00:58.722Z,47.75
2022-12-09T17:03:33.984Z,43.22
2022-12-09T17:06:03.321Z,47.60
2022-12-09T17:08:33.569Z,44.90
2022-12-09T17:11:02.933Z,39.72
2022-12-09T17:13:32.263Z,42.75
2022-12-09T17:16:02.984Z,54.25
2022-12-09T17:18:32.657Z,48.00
2022-12-09T17:21:05.373Z,44.15
2022-12-09T17:23:39.702Z,43.35
2022-12-09T17:26:13.963Z,36.55
2022-12-09T17:28:43.763Z,46.75
2022-12-09T17:31:16.739Z,51.65
2022-12-09T17:33:46.477Z,50.70
2022-12-09T17:36:16.621Z,43.88
2022-12-09T17:38:46.363Z,41.28
2022-12-09T17:41:18.857Z,44.20
2022-12-09T17:43:48.390Z,44.25
2022-12-09T17:46:20.243Z,48.17
2022-12-09T17:48:49.652Z,47.53
2022-12-09T17:51:19.534Z,43.22
2022-12-09T17:53:50.308Z,49.58
2022-12-09T17:56:22.216Z,52.88
2022-12-09T17:58:56.942Z,52.28
2022-12-09T18:01:27.509Z,47.42
2022-12-09T18:04:04.320Z,45.10
2022-12-09T18:06:35.440Z,50.78
2022-12-09T18:09:05.545Z,55.35
2022-12-09T18:11:34.763Z,51.72
2022-12-09T18:14:06.781Z,47.22
2022-12-09T18:16:40.936Z,53.10
2022-12-09T18:19:13.120Z,59.65
2022-12-09T18:21:42.374Z,48.53
2022-12-09T18:24:13.751Z,54.67
2022-12-09T18:29:14.138Z,55.45
2022-12-09T18:31:46.131Z,51.38
2022-12-09T18:34:18.263Z,48.83
2022-12-09T18:36:47.686Z,53.45
2022-12-09T18:39:21.061Z,51.53
2022-12-09T18:41:53.542Z,52.35
2022-12-09T18:44:23.053Z,53.42
2022-12-09T18:46:55.705Z,66.15
2022-12-09T18:49:28.493Z,55.50
2022-12-09T18:51:58.453Z,54.47
2022-12-09T18:54:28.906Z,51.42
2022-12-09T18:56:58.586Z,50.30
2022-12-09T18:59:28.023Z,50.22
2022-12-09T19:01:59.223Z,57.63
2022-12-09T19:04:31.343Z,50.03
2022-12-09T19:07:02.218Z,58.58
2022-12-09T19:09:34.776Z,51.60
2022-12-09T19:12:44.764Z,59.60
2022-12-09T19:14:59.023Z,56.20
2022-12-09T19:17:30.851Z,55.58
2022-12-09T19:20:00.260Z,56.88
2022-12-09T19:22:30.477Z,58.40
2022-12-09T19:25:02.463Z,52.30
2022-12-09T19:27:31.714Z,50.97
2022-12-09T19:30:01.453Z,52.60
2022-12-09T19:32:52.535Z,50.95
2022-12-09T19:35:21.768Z,51.85
2022-12-09T19:37:54.406Z,49.38
2022-12-09T19:40:27.396Z,64.18
2022-12-09T19:42:56.621Z,56.17
2022-12-09T19:45:26.119Z,46.38
2022-12-09T19:47:57.042Z,44.65
2022-12-09T19:50:26.606Z,55.42
2022-12-09T19:52:56.093Z,47.88
2022-12-09T19:55:25.267Z,42.67
2022-12-09T19:57:54.945Z,56.53
2022-12-09T20:00:27.130Z,49.67
2022-12-09T20:02:58.338Z,52.15
2022-12-09T20:05:27.838Z,46.47
2022-12-09T20:07:57.887Z,47.83
2022-12-09T20:10:27.515Z,50.25
2022-12-09T20:13:00.387Z,50.13
2022-12-09T20:15:30.011Z,47.05
2022-12-09T20:18:04.262Z,51.08
2022-12-09T20:20:37.851Z,50.53
2022-12-09T20:23:10.523Z,42.67
2022-12-09T20:25:40.591Z,56.80
2022-12-09T20:28:10.357Z,53.25
2022-12-09T20:30:39.903Z,45.85
2022-12-09T20:33:11.939Z,46.33
2022-12-09T20:35:42.181Z,52.15
2022-12-09T20:38:12.131Z,45.88
2022-12-09T20:40:42.764Z,43.40
2022-12-09T20:43:12.733Z,38.00
2022-12-09T20:45:42.413Z,50.45
2022-12-09T20:48:17.932Z,43.15
2022-12-09T20:50:51.195Z,41.03
2022-12-09T20:53:37.397Z,43.78
2022-12-09T20:56:21.228Z,41.00
2022-12-09T20:58:55.139Z,41.33
2022-12-09T21:01:28.219Z,43.25
2022-12-09T21:04:00.323Z,33.33
2022-12-09T21:06:31.632Z,43.25
2022-12-09T21:09:02.246Z,40.85
2022-12-09T21:11:32.696Z,40.45
2022-12-09T21:14:03.830Z,42.95
2022-12-09T21:16:35.713Z,37.75
2022-12-09T21:19:07.415Z,42.17
2022-12-09T21:21:40.385Z,38.97
2022-12-09T21:24:11.625Z,29.90
2022-12-09T21:26:41.354Z,38.63
2022-12-09T21:29:12.878Z,51.30
2022-12-09T21:31:44.314Z,34.67
2022-12-09T21:36:45.541Z,36.60
2022-12-09T21:39:16.161Z,33.80
2022-12-09T21:41:46.102Z,27.65
2022-12-09T21:44:17.553Z,30.98
2022-12-09T21:46:47.393Z,51.08
2022-12-09T21:49:16.610Z,31.27
2022-12-09T21:51:47.688Z,40.28
2022-12-09T21:54:22.198Z,21.23
2022-12-09T21:56:52.642Z,29.70
2022-12-09T21:59:23.050Z,40.40
2022-12-09T22:01:52.507Z,37.63
2022-12-09T22:04:21.757Z,32.50
2022-12-09T22:06:52.822Z,31.40
2022-12-09T22:09:22.597Z,36.15
2022-12-09T22:11:53.258Z,31.33
2022-12-09T22:14:23.152Z,29.38
2022-12-09T22:16:52.442Z,34.00
2022-12-09T22:19:23.220Z,38.30
2022-12-09T22:21:56.333Z,37.05
2022-12-09T22:24:27.408Z,41.78
2022-12-09T22:26:56.756Z,35.42
2022-12-09T22:29:29.058Z,31.83
2022-12-09T22:31:59.446Z,35.80
2022-12-09T22:34:29.447Z,37.10
2022-12-09T22:37:21.277Z,37.80
2022-12-09T22:40:03.387Z,34.05
2022-12-09T22:42:33.296Z,36.67
2022-12-09T22:45:02.982Z,31.95
2022-12-09T22:47:33.424Z,27.27
2022-12-09T22:50:04.157Z,27.05
2022-12-09T22:52:35.645Z,28.25
2022-12-09T22:55:07.377Z,31.08
2022-12-09T22:57:37.003Z,24.58
2022-12-09T23:00:11.517Z,31.25
2022-12-09T23:02:40.767Z,33.55
2022-12-09T23:05:11.876Z,28.90
2022-12-09T23:07:43.228Z,31.23
2022-12-09T23:10:12.943Z,27.92
2022-12-09T23:12:42.333Z,28.52
2022-12-09T23:15:14.276Z,28.38
2022-12-09T23:17:43.965Z,25.13
2022-12-09T23:20:15.383Z,29.45
2022-12-09T23:22:46.670Z,27.90
2022-12-09T23:25:22.416Z,29.48
2022-12-09T23:27:51.475Z,26.52
2022-12-09T23:30:21.067Z,26.00
2022-12-09T23:32:58.102Z,27.10
2022-12-09T23:35:27.273Z,21.48
2022-12-09T23:37:58.106Z,28.85
2022-12-09T23:40:30.315Z,30.88
2022-12-09T23:42:59.520Z,30.48
2022-12-09T23:45:28.907Z,34.30
2022-12-09T23:47:58.849Z,34.83
2022-12-09T23:50:28.590Z,24.92
2022-12-09T23:52:59.508Z,31.73
2022-12-09T23:55:29.419Z,31.95
2022-12-09T23:57:58.996Z,23.60
